Detall de PIREP

Printer-friendly versionPDF version

[2012/01/14 14:49:00]
Flight IATA:CT0001
Pilot Number:037
Company ICAO:CAT
Aircraft Type:B752/E
PAX:135
Departing Airport: LEBL
Destination Airport: LEIB
Alternate Airport:LEPA
Online: VATSIM
Route:LARPA B31 TOLSO
Flight Level:F190
No Slew and time accel
No pause
Crash detect
Detect pilot in Cockpit between each 30 and 45 minutes
14:49 Zero fuel Weight: 164792 Lbs, Fuel Weight: 15716 Lbs
14:49 VATSIM:LEBL 141430Z 11004KT 070V160 9999 FEW030 13/06 Q1018 NOSIG
14:49 VATSIM:LEIB 141430Z 32003KT 250V040 9999 FEW025 16/06 Q1018 NOSIG
14:59 Parking Brakes off
15:12 Take-off
15:12 Take off Weight: 179423 Lbs
15:12 Wind: 120º @ 004 Knots Heading: 066º
15:12 POS N41º 17´ 16´´ E002º 05´ 25´´
15:12 Gear Up: 197 Knots
15:12 Flaps:2 at 197 Knots
15:13 Flaps:1 at 227 Knots
15:13 Flaps:0 at 238 Knots
15:22 TOC
15:22 Fuel Weight: 12168 Lb
15:27 Wind:123º@002 Knots Heading: 246º Ground Speed: 433 Knots Altitude 19160 ft
15:36 TOD
15:36 Fuel Weight: 9968 Lb
15:42 Wind:119º@003 Knots Heading: 227º Ground Speed: 281 Knots Altitude 9865 ft
15:47 Flaps:1 at 212 Knots
15:47 Flaps:2 at 193 Knots
15:49 Flaps:3 at 176 Knots
15:49 Gear Down: 176 Knots
15:50 Flaps:4 at 149 Knots
15:50 Flaps:5 at 141 Knots
15:51 Flaps:6 at 172 Knots
15:51 TouchDown:Rate -270 ft/min Speed: 154 Knots
15:51 VATSIM:LEIB 141530Z 11006KT 9999 FEW025 14/10 Q1018 NOSIG
15:51 Land
15:51 Wind:112º@006 Knots
15:51 Heading: 238º
15:51 Flight Duration: 00:39
15:51 Landing Weight: 173602 Lbs
15:51 POS N38º 52´ 02´´ E001º 21´ 36´´
15:55 Parking brakes on
15:55 Block to Block Duration: 00:56
15:55 Final Fuel: 8350 Lbls
15:55 Spent Fuel: 7365 Lbls
15:55 Flight Length: 211 NM
15:55 TOD Land Length: 65 NM

Exportar CSV

Powered by Drupal - Modified by Danger4k